createdAt,value
2023-05-14T00:02:23.288Z,100238.34
2023-05-14T00:04:50.434Z,100230.88
2023-05-14T00:07:17.322Z,100226.53
2023-05-14T00:09:44.250Z,100230.50
2023-05-14T00:12:11.206Z,100220.06
2023-05-14T00:14:38.213Z,100226.38
2023-05-14T00:17:06.973Z,100224.50
2023-05-14T00:19:34.019Z,100228.63
2023-05-14T00:22:00.987Z,100229.22
2023-05-14T00:24:27.973Z,100232.75
2023-05-14T00:26:54.894Z,100230.41
2023-05-14T00:29:21.834Z,100228.69
2023-05-14T00:31:48.766Z,100219.94
2023-05-14T00:34:15.831Z,100217.47
2023-05-14T00:36:46.736Z,100207.34
2023-05-14T00:39:14.567Z,100207.41
2023-05-14T00:41:41.599Z,100207.56
2023-05-14T00:44:08.523Z,100205.69
2023-05-14T00:46:35.706Z,100197.53
2023-05-14T00:49:02.732Z,100191.75
2023-05-14T00:51:29.967Z,100182.84
2023-05-14T00:53:57.122Z,100176.97
2023-05-14T00:56:25.122Z,100173.94
2023-05-14T00:58:52.172Z,100183.13
2023-05-14T01:01:19.196Z,100170.31
2023-05-14T01:03:46.391Z,100178.88
2023-05-14T01:06:24.282Z,100171.91
2023-05-14T01:09:09.189Z,100171.28
2023-05-14T01:12:02.310Z,100165.91
2023-05-14T01:14:40.132Z,100161.31
2023-05-14T01:17:10.165Z,100162.16
2023-05-14T01:19:41.509Z,100157.19
2023-05-14T01:22:08.757Z,100161.03
2023-05-14T01:24:36.234Z,100159.75
2023-05-14T01:27:40.192Z,100152.72
2023-05-14T01:30:14.131Z,100148.34
2023-05-14T01:32:43.539Z,100147.94
2023-05-14T01:35:11.022Z,100146.34
2023-05-14T01:37:40.291Z,100148.00
2023-05-14T01:40:10.006Z,100135.94
2023-05-14T01:42:38.511Z,100136.75
2023-05-14T01:45:06.123Z,100140.66
2023-05-14T01:47:33.098Z,100132.72
2023-05-14T01:50:00.041Z,100123.41
2023-05-14T01:52:27.182Z,100132.72
2023-05-14T01:54:54.208Z,100125.22
2023-05-14T01:57:21.747Z,100127.09
2023-05-14T01:59:48.661Z,100113.63
2023-05-14T02:02:15.741Z,100114.19
2023-05-14T02:04:42.633Z,100108.56
2023-05-14T02:07:09.602Z,100109.25
2023-05-14T02:09:36.548Z,100116.53
2023-05-14T02:12:03.562Z,100119.44
2023-05-14T02:14:30.570Z,100119.69
2023-05-14T02:16:57.617Z,100117.34
2023-05-14T02:19:24.766Z,100114.03
2023-05-14T02:21:51.853Z,100122.13
2023-05-14T02:24:18.788Z,100112.75
2023-05-14T02:26:45.715Z,100098.47
2023-05-14T02:29:12.593Z,100104.13
2023-05-14T02:31:39.824Z,100092.19
2023-05-14T02:34:07.038Z,100097.44
2023-05-14T02:36:33.998Z,100093.53
2023-05-14T02:39:05.012Z,100095.41
2023-05-14T02:41:31.938Z,100090.22
2023-05-14T02:43:58.894Z,100085.03
2023-05-14T02:46:26.131Z,100075.63
2023-05-14T02:48:53.110Z,100080.56
2023-05-14T02:51:21.425Z,100075.41
2023-05-14T02:53:48.461Z,100075.53
2023-05-14T02:56:15.685Z,100062.16
2023-05-14T02:58:42.581Z,100066.72
2023-05-14T03:01:09.737Z,100072.13
2023-05-14T03:03:38.439Z,100057.66
2023-05-14T03:06:06.199Z,100059.16
2023-05-14T03:08:33.131Z,100051.28
2023-05-14T03:11:00.179Z,100041.56
2023-05-14T03:13:27.104Z,100044.69
2023-05-14T03:15:55.214Z,100043.28
2023-05-14T03:18:22.627Z,100038.13
2023-05-14T03:20:49.577Z,100029.66
2023-05-14T03:23:16.703Z,100030.13
2023-05-14T03:25:43.693Z,100029.28
2023-05-14T03:28:10.603Z,100020.38
2023-05-14T03:30:37.738Z,100029.50
2023-05-14T03:33:04.935Z,100029.97
2023-05-14T03:35:31.900Z,100036.09
2023-05-14T03:37:59.605Z,100040.44
2023-05-14T03:40:27.122Z,100042.72
2023-05-14T03:42:54.036Z,100045.16
2023-05-14T03:45:21.195Z,100043.88
2023-05-14T03:47:48.154Z,100031.00
2023-05-14T03:50:15.219Z,100037.59
2023-05-14T03:52:42.290Z,100027.03
2023-05-14T03:55:09.788Z,100029.88
2023-05-14T03:57:37.093Z,100023.06
2023-05-14T04:00:07.549Z,100020.16
2023-05-14T04:02:43.829Z,100020.34
2023-05-14T04:05:11.226Z,100021.63
2023-05-14T04:07:38.180Z,100022.03
2023-05-14T04:10:05.916Z,100015.66
2023-05-14T04:12:35.296Z,100014.38
2023-05-14T04:15:02.861Z,100008.38
2023-05-14T04:17:29.765Z,100012.72
2023-05-14T04:19:56.984Z,100015.19
2023-05-14T04:22:24.508Z,100014.69
2023-05-14T04:24:51.977Z,100008.69
2023-05-14T04:27:34.616Z,100009.16
2023-05-14T04:30:01.530Z,100009.47
2023-05-14T04:32:28.622Z,100010.50
2023-05-14T04:34:55.521Z,100002.41
2023-05-14T04:37:22.386Z,99999.84
2023-05-14T04:39:49.379Z,100003.41
2023-05-14T04:42:16.340Z,99995.06
2023-05-14T04:44:43.238Z,99986.16
2023-05-14T04:47:10.119Z,99996.00
2023-05-14T04:49:37.055Z,99989.78
2023-05-14T04:52:04.023Z,99986.03
2023-05-14T04:54:31.189Z,99979.00
2023-05-14T04:56:58.221Z,99981.53
2023-05-14T04:59:25.165Z,99977.56
2023-05-14T05:01:52.157Z,99981.44
2023-05-14T05:04:19.433Z,99977.72
2023-05-14T05:06:46.864Z,99970.75
2023-05-14T05:09:14.464Z,99975.69
2023-05-14T05:11:41.461Z,99981.84
2023-05-14T05:14:08.461Z,99975.59
2023-05-14T05:16:35.427Z,99977.16
2023-05-14T05:19:02.582Z,99975.75
2023-05-14T05:21:29.568Z,99976.88
2023-05-14T05:23:56.617Z,99971.47
2023-05-14T05:26:23.642Z,99972.09
2023-05-14T05:28:50.638Z,99969.19
2023-05-14T05:31:19.648Z,99968.13
2023-05-14T05:33:47.058Z,99965.19
2023-05-14T05:36:13.977Z,99966.47
2023-05-14T05:38:42.425Z,99965.81
2023-05-14T05:41:09.369Z,99963.94
2023-05-14T05:43:36.987Z,99963.09
2023-05-14T05:46:03.904Z,99944.50
2023-05-14T05:48:30.918Z,99941.81
2023-05-14T05:50:58.115Z,99934.28
2023-05-14T05:53:25.028Z,99931.38
2023-05-14T05:55:52.217Z,99921.53
2023-05-14T05:58:19.647Z,99923.16
2023-05-14T06:00:49.939Z,99910.38
2023-05-14T06:03:17.047Z,99907.91
2023-05-14T06:05:44.196Z,99910.75
2023-05-14T06:08:11.266Z,99910.28
2023-05-14T06:10:38.348Z,99911.47
2023-05-14T06:13:05.443Z,99909.81
2023-05-14T06:15:32.418Z,99903.50
2023-05-14T06:17:59.523Z,99902.22
2023-05-14T06:20:26.685Z,99899.75
2023-05-14T06:22:54.036Z,99909.03
2023-05-14T06:25:21.051Z,99900.22
2023-05-14T06:27:47.997Z,99895.19
2023-05-14T06:30:15.546Z,99898.13
2023-05-14T06:32:42.589Z,99891.88
2023-05-14T06:35:09.716Z,99891.66
2023-05-14T06:37:36.674Z,99903.25
2023-05-14T06:40:04.132Z,99893.44
2023-05-14T06:42:31.095Z,99896.25
2023-05-14T06:44:58.551Z,99887.34
2023-05-14T06:47:25.711Z,99893.75
2023-05-14T06:49:52.719Z,99877.59
2023-05-14T06:52:19.642Z,99885.59
2023-05-14T06:54:46.550Z,99873.06
2023-05-14T06:57:14.212Z,99880.34
2023-05-14T06:59:41.591Z,99878.81
2023-05-14T07:02:08.581Z,99879.66
2023-05-14T07:04:36.662Z,99877.28
2023-05-14T07:07:03.798Z,99871.66
2023-05-14T07:09:30.693Z,99872.63
2023-05-14T07:11:57.619Z,99866.16
2023-05-14T07:14:24.613Z,99873.31
2023-05-14T07:16:51.700Z,99864.75
2023-05-14T07:19:18.676Z,99871.31
2023-05-14T07:21:45.671Z,99858.19
2023-05-14T07:24:12.789Z,99858.41
2023-05-14T07:26:39.891Z,99849.97
2023-05-14T07:29:07.050Z,99853.25
2023-05-14T07:31:34.191Z,99849.13
2023-05-14T07:34:01.200Z,99863.59
2023-05-14T07:36:28.291Z,99867.44
2023-05-14T07:38:55.409Z,99862.63
2023-05-14T07:41:22.353Z,99852.19
2023-05-14T07:43:49.235Z,99828.00
2023-05-14T07:46:16.831Z,99822.84
2023-05-14T07:48:43.797Z,99832.97
2023-05-14T07:51:10.752Z,99848.09
2023-05-14T07:53:37.805Z,99838.00
2023-05-14T07:56:05.153Z,99837.53
2023-05-14T07:58:32.177Z,99831.31
2023-05-14T08:00:59.106Z,99832.94
2023-05-14T08:03:26.197Z,99821.66
2023-05-14T08:05:53.292Z,99815.94
2023-05-14T08:08:20.280Z,99807.13
2023-05-14T08:10:47.262Z,99806.75
2023-05-14T08:13:14.237Z,99804.63
2023-05-14T08:15:41.324Z,99795.25
2023-05-14T08:18:08.331Z,99801.25
2023-05-14T08:20:35.320Z,99796.22
2023-05-14T08:23:02.263Z,99789.63
2023-05-14T08:25:29.291Z,99784.94
2023-05-14T08:27:56.330Z,99780.56
2023-05-14T08:30:23.702Z,99780.44
2023-05-14T08:32:51.091Z,99771.63
2023-05-14T08:35:19.227Z,99774.91
2023-05-14T08:37:46.306Z,99781.41
2023-05-14T08:40:13.674Z,99776.69
2023-05-14T08:42:45.248Z,99793.03
2023-05-14T08:45:18.936Z,99800.44
2023-05-14T08:47:51.131Z,99800.81
2023-05-14T08:50:22.568Z,99807.38
2023-05-14T08:52:50.625Z,99811.59
2023-05-14T08:55:17.582Z,99806.47
2023-05-14T08:57:44.539Z,99804.56
2023-05-14T09:00:12.230Z,99788.97
2023-05-14T09:02:42.597Z,99790.59
2023-05-14T09:05:10.140Z,99816.66
2023-05-14T09:07:37.121Z,99819.69
2023-05-14T09:10:04.952Z,99827.66
2023-05-14T09:12:31.855Z,99813.03
2023-05-14T09:14:58.857Z,99818.75
2023-05-14T09:17:28.027Z,99812.28
2023-05-14T09:19:55.313Z,99797.53
2023-05-14T09:22:22.596Z,99793.28
2023-05-14T09:25:04.294Z,99780.19
2023-05-14T09:27:32.967Z,99786.03
2023-05-14T09:30:09.987Z,99790.13
2023-05-14T09:32:38.918Z,99790.25
2023-05-14T09:35:22.373Z,99781.44
2023-05-14T09:37:51.535Z,99777.00
2023-05-14T09:40:20.818Z,99761.50
2023-05-14T09:42:49.425Z,99765.41
2023-05-14T09:45:17.147Z,99752.94
2023-05-14T09:47:45.533Z,99744.72
2023-05-14T09:50:12.919Z,99735.81
2023-05-14T09:52:40.156Z,99732.97
2023-05-14T09:55:08.148Z,99733.44
2023-05-14T09:57:35.730Z,99732.47
2023-05-14T10:00:02.748Z,99716.84
2023-05-14T10:02:41.480Z,99712.06
2023-05-14T10:05:09.152Z,99704.88
2023-05-14T10:07:49.039Z,99691.03
2023-05-14T10:10:17.177Z,99686.22
2023-05-14T10:12:52.095Z,99696.44
2023-05-14T10:15:30.393Z,99716.09
2023-05-14T10:18:03.869Z,99713.84
2023-05-14T10:20:31.743Z,99697.97
2023-05-14T10:22:59.128Z,99699.34
2023-05-14T10:25:27.029Z,99713.59
2023-05-14T10:27:54.873Z,99714.31
2023-05-14T10:30:25.748Z,99726.34
2023-05-14T10:33:10.586Z,99716.31
2023-05-14T10:36:02.295Z,99693.63
2023-05-14T10:38:32.273Z,99698.56
2023-05-14T10:41:00.238Z,99703.94
2023-05-14T10:43:29.676Z,99714.44
2023-05-14T10:45:58.456Z,99716.03
2023-05-14T10:48:26.249Z,99699.34
2023-05-14T10:50:54.247Z,99701.25
2023-05-14T10:53:22.613Z,99697.06
2023-05-14T10:55:49.967Z,99700.00
2023-05-14T10:58:18.167Z,99693.81
2023-05-14T11:00:48.375Z,99691.69
2023-05-14T11:03:16.600Z,99696.03
2023-05-14T11:05:45.198Z,99695.06
2023-05-14T11:08:12.795Z,99696.34
2023-05-14T11:10:39.915Z,99689.72
2023-05-14T11:13:07.243Z,99685.84
2023-05-14T11:15:34.764Z,99690.44
2023-05-14T11:18:01.860Z,99690.19
2023-05-14T11:20:28.923Z,99695.34
2023-05-14T11:22:55.986Z,99702.91
2023-05-14T11:25:25.941Z,99707.31
2023-05-14T11:27:56.311Z,99704.34
2023-05-14T11:30:23.618Z,99692.22
2023-05-14T11:32:51.571Z,99693.84
2023-05-14T11:35:19.114Z,99686.47
2023-05-14T11:37:52.822Z,99683.63
2023-05-14T11:40:20.119Z,99684.25
2023-05-14T11:42:47.236Z,99676.06
2023-05-14T11:45:24.303Z,99678.72
2023-05-14T11:47:52.973Z,99672.22
2023-05-14T11:50:21.215Z,99666.06
2023-05-14T11:52:50.954Z,99660.75
2023-05-14T11:55:18.027Z,99648.91
2023-05-14T11:57:45.121Z,99643.66
2023-05-14T12:00:14.748Z,99639.50
2023-05-14T12:02:42.096Z,99642.34
2023-05-14T12:05:12.802Z,99639.63
2023-05-14T12:07:39.856Z,99630.63
2023-05-14T12:10:07.599Z,99621.78
2023-05-14T12:12:37.662Z,99610.03
2023-05-14T12:15:14.750Z,99609.31
2023-05-14T12:17:41.839Z,99612.69
2023-05-14T12:20:13.803Z,99625.31
2023-05-14T12:22:42.728Z,99613.13
2023-05-14T12:25:15.253Z,99608.00
2023-05-14T12:27:45.147Z,99613.13
2023-05-14T12:32:46.979Z,99624.94
2023-05-14T12:35:14.071Z,99620.28
2023-05-14T12:37:42.080Z,99619.41
2023-05-14T12:40:12.589Z,99623.50
2023-05-14T12:42:39.533Z,99629.78
2023-05-14T12:45:08.815Z,99620.13
2023-05-14T12:47:36.601Z,99630.22
2023-05-14T12:50:03.920Z,99624.56
2023-05-14T12:55:01.712Z,99615.88
2023-05-14T12:57:30.035Z,99614.06
2023-05-14T12:59:57.873Z,99613.47
2023-05-14T13:02:24.815Z,99617.97
2023-05-14T13:04:51.740Z,99615.88
2023-05-14T13:07:18.712Z,99616.88
2023-05-14T13:09:45.671Z,99602.13
2023-05-14T13:12:12.674Z,99596.22
2023-05-14T13:14:39.687Z,99600.16
2023-05-14T13:17:08.364Z,99597.25
2023-05-14T13:19:35.465Z,99580.19
2023-05-14T13:22:02.428Z,99600.06
2023-05-14T13:24:29.373Z,99595.03
2023-05-14T13:26:56.302Z,99597.59
2023-05-14T13:29:24.739Z,99594.72
2023-05-14T13:31:51.711Z,99597.34
2023-05-14T13:34:19.042Z,99598.78
2023-05-14T13:36:47.376Z,99602.81
2023-05-14T13:39:14.751Z,99601.16
2023-05-14T13:41:42.110Z,99599.09
2023-05-14T13:44:09.155Z,99595.41
2023-05-14T13:46:36.125Z,99600.16
2023-05-14T13:49:03.135Z,99595.75
2023-05-14T13:51:30.179Z,99595.44
2023-05-14T13:53:57.167Z,99592.38
2023-05-14T13:56:24.083Z,99602.31
2023-05-14T13:58:51.035Z,99608.06
2023-05-14T14:01:18.234Z,99608.53
2023-05-14T14:03:45.193Z,99610.75
2023-05-14T14:06:12.205Z,99610.81
2023-05-14T14:08:39.275Z,99606.81
2023-05-14T14:11:06.258Z,99614.72
2023-05-14T14:13:33.382Z,99614.47
2023-05-14T14:16:00.429Z,99612.44
2023-05-14T14:18:27.527Z,99621.44
2023-05-14T14:20:54.485Z,99619.09
2023-05-14T14:23:21.599Z,99618.50
2023-05-14T14:25:48.537Z,99616.72
2023-05-14T14:28:15.563Z,99620.31
2023-05-14T14:30:43.977Z,99612.31
2023-05-14T14:33:11.624Z,99621.63
2023-05-14T14:35:38.818Z,99609.09
2023-05-14T14:38:05.979Z,99617.22
2023-05-14T14:40:36.140Z,99623.34
2023-05-14T14:43:03.103Z,99628.13
2023-05-14T14:45:30.101Z,99621.81
2023-05-14T14:48:32.105Z,99607.91
2023-05-14T14:50:59.284Z,99606.31
2023-05-14T14:53:26.208Z,99607.56
2023-05-14T14:55:53.981Z,99600.03
2023-05-14T14:58:21.375Z,99589.38
2023-05-14T15:00:51.358Z,99577.75
2023-05-14T15:03:18.847Z,99561.81
2023-05-14T15:05:45.982Z,99570.34
2023-05-14T15:08:13.743Z,99585.94
2023-05-14T15:10:41.822Z,99593.13
2023-05-14T15:13:09.310Z,99607.13
2023-05-14T15:15:36.501Z,99593.97
2023-05-14T15:18:04.639Z,99586.06
2023-05-14T15:20:31.727Z,99576.97
2023-05-14T15:22:58.774Z,99571.91
2023-05-14T15:25:27.163Z,99574.81
2023-05-14T15:27:54.349Z,99571.16
2023-05-14T15:30:21.411Z,99571.88
2023-05-14T15:32:48.473Z,99558.66
2023-05-14T15:35:15.493Z,99556.81
2023-05-14T15:37:44.772Z,99547.34
2023-05-14T15:40:12.731Z,99553.38
2023-05-14T15:42:43.923Z,99547.97
2023-05-14T15:45:13.366Z,99548.94
2023-05-14T15:47:41.790Z,99535.03
2023-05-14T15:50:09.432Z,99539.03
2023-05-14T15:52:36.758Z,99547.19
2023-05-14T17:18:15.045Z,99546.44
2023-05-14T17:20:42.003Z,99548.19
2023-05-14T17:23:08.900Z,99544.53
2023-05-14T17:25:35.933Z,99540.84
2023-05-14T17:28:05.809Z,99548.69
2023-05-14T17:30:32.865Z,99549.03
2023-05-14T17:33:00.213Z,99543.72
2023-05-14T17:35:27.302Z,99546.16
2023-05-14T17:37:54.224Z,99551.41
2023-05-14T17:40:21.212Z,99560.22
2023-05-14T17:42:48.287Z,99571.84
2023-05-14T17:45:15.772Z,99580.31
2023-05-14T17:47:42.783Z,99569.22
2023-05-14T17:50:09.999Z,99574.41
2023-05-14T17:52:37.970Z,99574.16
2023-05-14T17:55:05.337Z,99564.66
2023-05-14T17:57:35.286Z,99563.00
2023-05-14T18:00:02.589Z,99549.59
2023-05-14T18:02:37.870Z,99535.53
2023-05-14T18:05:05.714Z,99533.31
2023-05-14T18:07:32.901Z,99527.28
2023-05-14T18:09:59.872Z,99542.97
2023-05-14T18:12:27.674Z,99541.91
2023-05-14T18:14:54.755Z,99554.81
2023-05-14T18:17:21.833Z,99560.72
2023-05-14T18:19:48.903Z,99558.59
2023-05-14T18:22:16.251Z,99553.06
2023-05-14T18:24:44.525Z,99552.56
2023-05-14T18:27:11.619Z,99545.25
2023-05-14T18:29:38.728Z,99548.38
2023-05-14T18:32:06.133Z,99547.94
2023-05-14T18:34:33.045Z,99547.81
2023-05-14T18:37:00.039Z,99531.09
2023-05-14T18:39:26.989Z,99527.50
2023-05-14T18:41:55.269Z,99540.59
2023-05-14T18:44:22.871Z,99553.28
2023-05-14T18:46:50.003Z,99543.78
2023-05-14T18:49:17.015Z,99541.81
2023-05-14T18:51:44.028Z,99551.59
2023-05-14T18:54:11.013Z,99557.38
2023-05-14T18:56:38.134Z,99574.66
2023-05-14T18:59:05.245Z,99581.84
2023-05-14T19:01:32.271Z,99588.53
2023-05-14T19:03:59.199Z,99600.19
2023-05-14T19:06:26.223Z,99609.84
2023-05-14T19:08:53.227Z,99614.59
2023-05-14T19:11:20.292Z,99609.44
2023-05-14T19:13:48.125Z,99591.13
2023-05-14T19:16:15.193Z,99584.59
2023-05-14T19:18:42.468Z,99577.63
2023-05-14T19:21:09.442Z,99562.91
2023-05-14T19:23:36.569Z,99556.44
2023-05-14T19:26:04.335Z,99561.44
2023-05-14T19:28:31.357Z,99556.91
2023-05-14T19:30:58.370Z,99564.59
2023-05-14T19:33:26.286Z,99580.34
2023-05-14T19:35:53.339Z,99563.78
2023-05-14T19:38:21.140Z,99580.13
2023-05-14T19:40:48.249Z,99586.00
2023-05-14T19:43:15.282Z,99595.78
2023-05-14T19:45:42.933Z,99592.72
2023-05-14T19:48:09.988Z,99576.78
2023-05-14T19:50:39.778Z,99567.03
2023-05-14T19:53:06.745Z,99559.03
2023-05-14T19:55:33.662Z,99573.19
2023-05-14T19:58:00.649Z,99575.81
2023-05-14T20:00:27.810Z,99598.28
2023-05-14T20:02:55.622Z,99609.06
2023-05-14T20:05:22.612Z,99606.78
2023-05-14T20:07:49.663Z,99587.63
2023-05-14T20:10:17.092Z,99582.81
2023-05-14T20:12:45.001Z,99568.97
2023-05-14T20:15:15.734Z,99565.13
2023-05-14T20:17:42.830Z,99558.75
2023-05-14T20:20:10.539Z,99558.00
2023-05-14T20:22:38.574Z,99563.53
2023-05-14T20:25:06.106Z,99558.25
2023-05-14T20:27:33.091Z,99554.25
2023-05-14T20:29:59.957Z,99548.06
2023-05-14T20:32:26.964Z,99548.34
2023-05-14T20:34:53.921Z,99548.25
2023-05-14T20:37:20.965Z,99547.34
2023-05-14T20:39:48.053Z,99545.13
2023-05-14T20:42:15.036Z,99543.00
2023-05-14T20:44:42.071Z,99542.19
2023-05-14T20:47:08.988Z,99550.38
2023-05-14T20:49:35.874Z,99546.41
2023-05-14T20:52:02.866Z,99553.09
2023-05-14T20:54:29.755Z,99542.28
2023-05-14T20:56:56.733Z,99537.63
2023-05-14T20:59:23.761Z,99528.63
2023-05-14T21:01:51.338Z,99517.59
2023-05-14T21:04:18.575Z,99527.81
2023-05-14T21:06:46.074Z,99539.88
2023-05-14T21:09:13.064Z,99547.00
2023-05-14T21:11:40.024Z,99540.84
2023-05-14T21:14:06.940Z,99534.13
2023-05-14T21:16:34.032Z,99530.31
2023-05-14T21:19:01.162Z,99521.38
2023-05-14T21:21:28.175Z,99525.09
2023-05-14T21:23:55.086Z,99522.94
2023-05-14T21:26:22.570Z,99521.44
2023-05-14T21:28:49.602Z,99523.72
2023-05-14T21:31:16.657Z,99521.97
2023-05-14T21:33:43.650Z,99517.88
2023-05-14T21:36:11.131Z,99528.28
2023-05-14T21:38:38.041Z,99536.50
2023-05-14T21:41:05.004Z,99535.22
2023-05-14T21:43:31.983Z,99535.97
2023-05-14T21:45:58.894Z,99538.66
2023-05-14T21:48:26.253Z,99529.25
2023-05-14T21:50:53.190Z,99536.91
2023-05-14T21:53:20.426Z,99548.72
2023-05-14T21:55:47.590Z,99554.72
2023-05-14T21:58:14.644Z,99546.50
2023-05-14T22:00:41.585Z,99544.41
2023-05-14T22:03:08.696Z,99541.97
2023-05-14T22:05:35.905Z,99534.50
2023-05-14T22:08:02.836Z,99545.41
2023-05-14T22:10:31.338Z,99549.81
2023-05-14T22:12:58.403Z,99554.19
2023-05-14T22:15:25.630Z,99557.59
2023-05-14T22:17:52.811Z,99557.25
2023-05-14T22:20:19.838Z,99551.19
2023-05-14T22:22:46.717Z,99555.59
2023-05-14T22:25:13.628Z,99553.59
2023-05-14T22:27:40.705Z,99554.56
2023-05-14T22:30:08.128Z,99539.09
2023-05-14T22:32:35.042Z,99537.09
2023-05-14T22:35:02.229Z,99528.75
2023-05-14T22:37:29.122Z,99526.94
2023-05-14T22:39:56.032Z,99529.25
2023-05-14T22:42:22.935Z,99531.00
2023-05-14T22:44:49.835Z,99525.25
2023-05-14T22:47:16.722Z,99512.16
2023-05-14T22:49:43.952Z,99520.69
2023-05-14T22:52:10.859Z,99508.84
2023-05-14T22:54:37.888Z,99509.69
2023-05-14T22:57:05.174Z,99521.53
2023-05-14T22:59:32.186Z,99521.16
2023-05-14T23:01:59.119Z,99518.34
2023-05-14T23:04:26.437Z,99527.03
2023-05-14T23:06:53.347Z,99539.81
2023-05-14T23:09:20.384Z,99534.31
2023-05-14T23:11:47.422Z,99529.72
2023-05-14T23:14:14.402Z,99541.78
2023-05-14T23:16:41.278Z,99548.38
2023-05-14T23:19:08.321Z,99544.69
2023-05-14T23:21:35.403Z,99530.19
2023-05-14T23:24:02.345Z,99529.84
2023-05-14T23:26:29.373Z,99524.78
2023-05-14T23:28:56.340Z,99518.59
2023-05-14T23:31:23.263Z,99525.03
2023-05-14T23:33:50.279Z,99518.00
2023-05-14T23:36:17.239Z,99526.56
2023-05-14T23:38:44.498Z,99533.00
2023-05-14T23:41:11.395Z,99526.78
2023-05-14T23:43:38.328Z,99518.34
2023-05-14T23:46:05.463Z,99490.50
2023-05-14T23:48:32.852Z,99485.53
2023-05-14T23:50:59.744Z,99489.19
2023-05-14T23:53:26.673Z,99491.88
2023-05-14T23:55:53.709Z,99481.22
2023-05-14T23:58:20.986Z,99475.38
